sensor_id;sensor_type;location;lat;lon;timestamp;temperature;humidity
7666;DHT22;3875;46.562;4.898;2023-04-01T00:00:58;11.20;79.60
7666;DHT22;3875;46.562;4.898;2023-04-01T00:03:25;11.20;79.50
7666;DHT22;3875;46.562;4.898;2023-04-01T00:05:53;11.30;79.50
7666;DHT22;3875;46.562;4.898;2023-04-01T00:08:18;11.30;79.60
7666;DHT22;3875;46.562;4.898;2023-04-01T00:10:44;11.30;79.20
7666;DHT22;3875;46.562;4.898;2023-04-01T00:13:10;11.30;79.20
7666;DHT22;3875;46.562;4.898;2023-04-01T00:15:37;11.30;79.10
7666;DHT22;3875;46.562;4.898;2023-04-01T00:18:03;11.30;79.10
7666;DHT22;3875;46.562;4.898;2023-04-01T00:20:29;11.30;79.10
7666;DHT22;3875;46.562;4.898;2023-04-01T00:22:55;11.30;79.00
7666;DHT22;3875;46.562;4.898;2023-04-01T00:25:21;11.30;79.00
7666;DHT22;3875;46.562;4.898;2023-04-01T00:27:47;11.30;78.90
7666;DHT22;3875;46.562;4.898;2023-04-01T00:30:13;11.30;78.90
7666;DHT22;3875;46.562;4.898;2023-04-01T00:32:39;11.30;78.90
7666;DHT22;3875;46.562;4.898;2023-04-01T00:35:04;11.30;79.10
7666;DHT22;3875;46.562;4.898;2023-04-01T00:37:30;11.30;79.20
7666;DHT22;3875;46.562;4.898;2023-04-01T00:39:56;11.30;79.50
7666;DHT22;3875;46.562;4.898;2023-04-01T00:42:23;11.20;79.70
7666;DHT22;3875;46.562;4.898;2023-04-01T00:44:51;11.20;79.90
7666;DHT22;3875;46.562;4.898;2023-04-01T00:47:18;11.20;79.70
7666;DHT22;3875;46.562;4.898;2023-04-01T00:49:48;11.20;79.80
7666;DHT22;3875;46.562;4.898;2023-04-01T00:52:18;11.10;79.60
7666;DHT22;3875;46.562;4.898;2023-04-01T00:54:46;11.10;79.50
7666;DHT22;3875;46.562;4.898;2023-04-01T00:57:34;11.10;79.80
7666;DHT22;3875;46.562;4.898;2023-04-01T01:00:05;11.10;79.70
7666;DHT22;3875;46.562;4.898;2023-04-01T01:02:33;11.10;79.70
7666;DHT22;3875;46.562;4.898;2023-04-01T01:05:00;11.10;80.10
7666;DHT22;3875;46.562;4.898;2023-04-01T01:07:32;11.00;80.40
7666;DHT22;3875;46.562;4.898;2023-04-01T01:12:40;10.90;80.60
7666;DHT22;3875;46.562;4.898;2023-04-01T01:15:27;10.90;80.80
7666;DHT22;3875;46.562;4.898;2023-04-01T01:18:22;10.90;81.20
7666;DHT22;3875;46.562;4.898;2023-04-01T01:27:02;10.70;82.70
7666;DHT22;3875;46.562;4.898;2023-04-01T01:35:19;10.70;82.60
7666;DHT22;3875;46.562;4.898;2023-04-01T01:37:46;10.70;82.40
7666;DHT22;3875;46.562;4.898;2023-04-01T01:40:16;10.60;82.40
7666;DHT22;3875;46.562;4.898;2023-04-01T01:42:48;10.70;82.40
7666;DHT22;3875;46.562;4.898;2023-04-01T01:45:18;10.70;82.80
7666;DHT22;3875;46.562;4.898;2023-04-01T01:47:45;10.70;83.00
7666;DHT22;3875;46.562;4.898;2023-04-01T01:50:12;10.70;83.10
7666;DHT22;3875;46.562;4.898;2023-04-01T01:52:38;10.60;82.90
7666;DHT22;3875;46.562;4.898;2023-04-01T01:55:33;10.60;83.00
7666;DHT22;3875;46.562;4.898;2023-04-01T01:58:05;10.60;82.80
7666;DHT22;3875;46.562;4.898;2023-04-01T02:00:34;10.60;82.90
7666;DHT22;3875;46.562;4.898;2023-04-01T02:03:01;10.50;83.30
7666;DHT22;3875;46.562;4.898;2023-04-01T02:05:28;10.50;83.50
7666;DHT22;3875;46.562;4.898;2023-04-01T02:10:36;10.40;83.80
7666;DHT22;3875;46.562;4.898;2023-04-01T02:13:08;10.40;84.10
7666;DHT22;3875;46.562;4.898;2023-04-01T02:15:41;10.40;83.80
7666;DHT22;3875;46.562;4.898;2023-04-01T02:18:08;10.40;83.80
7666;DHT22;3875;46.562;4.898;2023-04-01T02:20:36;10.40;83.90
7666;DHT22;3875;46.562;4.898;2023-04-01T02:23:02;10.40;83.90
7666;DHT22;3875;46.562;4.898;2023-04-01T02:25:30;10.40;83.70
7666;DHT22;3875;46.562;4.898;2023-04-01T02:27:59;10.40;83.70
7666;DHT22;3875;46.562;4.898;2023-04-01T02:30:27;10.40;83.60
7666;DHT22;3875;46.562;4.898;2023-04-01T02:32:55;10.40;83.70
7666;DHT22;3875;46.562;4.898;2023-04-01T02:35:22;10.50;84.10
7666;DHT22;3875;46.562;4.898;2023-04-01T02:37:50;10.50;84.20
7666;DHT22;3875;46.562;4.898;2023-04-01T02:40:17;10.50;84.40
7666;DHT22;3875;46.562;4.898;2023-04-01T02:42:43;10.50;84.30
7666;DHT22;3875;46.562;4.898;2023-04-01T02:45:10;10.50;84.80
7666;DHT22;3875;46.562;4.898;2023-04-01T02:47:36;10.40;84.80
7666;DHT22;3875;46.562;4.898;2023-04-01T02:50:02;10.40;84.80
7666;DHT22;3875;46.562;4.898;2023-04-01T02:52:29;10.40;84.90
7666;DHT22;3875;46.562;4.898;2023-04-01T02:54:55;10.40;85.00
7666;DHT22;3875;46.562;4.898;2023-04-01T02:57:22;10.30;85.30
7666;DHT22;3875;46.562;4.898;2023-04-01T02:59:47;10.30;85.50
7666;DHT22;3875;46.562;4.898;2023-04-01T03:02:14;10.30;85.70
7666;DHT22;3875;46.562;4.898;2023-04-01T03:04:40;10.30;85.40
7666;DHT22;3875;46.562;4.898;2023-04-01T03:07:05;10.30;85.70
7666;DHT22;3875;46.562;4.898;2023-04-01T03:09:32;10.30;85.80
7666;DHT22;3875;46.562;4.898;2023-04-01T03:11:57;10.30;86.00
7666;DHT22;3875;46.562;4.898;2023-04-01T03:14:26;10.30;85.90
7666;DHT22;3875;46.562;4.898;2023-04-01T03:16:51;10.40;86.00
7666;DHT22;3875;46.562;4.898;2023-04-01T03:19:17;10.40;86.10
7666;DHT22;3875;46.562;4.898;2023-04-01T03:21:43;10.40;86.00
7666;DHT22;3875;46.562;4.898;2023-04-01T03:24:08;10.40;86.00
7666;DHT22;3875;46.562;4.898;2023-04-01T03:26:34;10.40;86.70
7666;DHT22;3875;46.562;4.898;2023-04-01T03:29:00;10.40;87.20
7666;DHT22;3875;46.562;4.898;2023-04-01T03:31:25;10.40;87.20
7666;DHT22;3875;46.562;4.898;2023-04-01T03:33:51;10.40;86.90
7666;DHT22;3875;46.562;4.898;2023-04-01T03:36:17;10.40;87.00
7666;DHT22;3875;46.562;4.898;2023-04-01T03:38:44;10.50;87.00
7666;DHT22;3875;46.562;4.898;2023-04-01T03:41:14;10.40;87.10
7666;DHT22;3875;46.562;4.898;2023-04-01T03:43:41;10.50;87.20
7666;DHT22;3875;46.562;4.898;2023-04-01T03:46:07;10.50;87.50
7666;DHT22;3875;46.562;4.898;2023-04-01T03:48:32;10.40;87.70
7666;DHT22;3875;46.562;4.898;2023-04-01T03:50:58;10.40;87.50
7666;DHT22;3875;46.562;4.898;2023-04-01T03:53:24;10.40;87.60
7666;DHT22;3875;46.562;4.898;2023-04-01T03:55:50;10.40;87.90
7666;DHT22;3875;46.562;4.898;2023-04-01T03:58:16;10.40;87.90
7666;DHT22;3875;46.562;4.898;2023-04-01T04:00:42;10.40;87.80
7666;DHT22;3875;46.562;4.898;2023-04-01T04:03:08;10.30;87.90
7666;DHT22;3875;46.562;4.898;2023-04-01T04:05:34;10.30;87.80
7666;DHT22;3875;46.562;4.898;2023-04-01T04:07:59;10.30;87.60
7666;DHT22;3875;46.562;4.898;2023-04-01T04:10:25;10.30;87.60
7666;DHT22;3875;46.562;4.898;2023-04-01T04:12:51;10.30;87.80
7666;DHT22;3875;46.562;4.898;2023-04-01T04:15:17;10.30;87.90
7666;DHT22;3875;46.562;4.898;2023-04-01T04:17:44;10.30;88.30
7666;DHT22;3875;46.562;4.898;2023-04-01T04:20:10;10.30;88.40
7666;DHT22;3875;46.562;4.898;2023-04-01T04:22:36;10.30;88.50
7666;DHT22;3875;46.562;4.898;2023-04-01T04:25:02;10.20;88.60
7666;DHT22;3875;46.562;4.898;2023-04-01T04:27:28;10.20;88.70
7666;DHT22;3875;46.562;4.898;2023-04-01T04:29:53;10.20;88.80
7666;DHT22;3875;46.562;4.898;2023-04-01T04:32:19;10.30;89.00
7666;DHT22;3875;46.562;4.898;2023-04-01T04:34:45;10.30;89.10
7666;DHT22;3875;46.562;4.898;2023-04-01T04:37:10;10.30;89.60
7666;DHT22;3875;46.562;4.898;2023-04-01T04:39:36;10.20;89.70
7666;DHT22;3875;46.562;4.898;2023-04-01T04:42:02;10.20;89.80
7666;DHT22;3875;46.562;4.898;2023-04-01T04:44:28;10.20;89.70
7666;DHT22;3875;46.562;4.898;2023-04-01T04:46:53;10.20;89.90
7666;DHT22;3875;46.562;4.898;2023-04-01T04:49:19;10.20;89.60
7666;DHT22;3875;46.562;4.898;2023-04-01T04:51:45;10.30;89.30
7666;DHT22;3875;46.562;4.898;2023-04-01T04:54:10;10.30;89.40
7666;DHT22;3875;46.562;4.898;2023-04-01T04:56:36;10.30;89.30
7666;DHT22;3875;46.562;4.898;2023-04-01T04:59:02;10.30;89.10
7666;DHT22;3875;46.562;4.898;2023-04-01T05:01:28;10.30;89.20
7666;DHT22;3875;46.562;4.898;2023-04-01T05:03:53;10.30;89.10
7666;DHT22;3875;46.562;4.898;2023-04-01T05:06:20;10.40;89.00
7666;DHT22;3875;46.562;4.898;2023-04-01T05:08:46;10.40;88.80
7666;DHT22;3875;46.562;4.898;2023-04-01T05:11:14;10.40;88.50
7666;DHT22;3875;46.562;4.898;2023-04-01T05:13:59;10.40;88.40
7666;DHT22;3875;46.562;4.898;2023-04-01T05:22:47;10.30;88.10
7666;DHT22;3875;46.562;4.898;2023-04-01T05:25:18;10.40;88.00
7666;DHT22;3875;46.562;4.898;2023-04-01T05:27:51;10.40;87.70
7666;DHT22;3875;46.562;4.898;2023-04-01T05:33:59;10.50;87.60
7666;DHT22;3875;46.562;4.898;2023-04-01T05:36:34;10.50;87.40
7666;DHT22;3875;46.562;4.898;2023-04-01T05:39:09;10.50;87.40
7666;DHT22;3875;46.562;4.898;2023-04-01T05:41:57;10.60;87.10
7666;DHT22;3875;46.562;4.898;2023-04-01T05:47:41;10.60;87.00
7666;DHT22;3875;46.562;4.898;2023-04-01T05:57:10;10.70;86.50
7666;DHT22;3875;46.562;4.898;2023-04-01T05:59:41;10.70;86.70
7666;DHT22;3875;46.562;4.898;2023-04-01T06:02:08;10.70;86.80
7666;DHT22;3875;46.562;4.898;2023-04-01T06:04:41;10.70;86.70
7666;DHT22;3875;46.562;4.898;2023-04-01T06:07:20;10.70;86.70
7666;DHT22;3875;46.562;4.898;2023-04-01T06:29:52;11.10;86.10
7666;DHT22;3875;46.562;4.898;2023-04-01T06:38:54;11.20;86.10
7666;DHT22;3875;46.562;4.898;2023-04-01T06:42:02;11.20;86.00
7666;DHT22;3875;46.562;4.898;2023-04-01T06:47:49;11.20;86.00
7666;DHT22;3875;46.562;4.898;2023-04-01T06:50:28;11.20;86.30
7666;DHT22;3875;46.562;4.898;2023-04-01T06:56:29;11.20;86.10
7666;DHT22;3875;46.562;4.898;2023-04-01T07:08:38;11.20;86.10
7666;DHT22;3875;46.562;4.898;2023-04-01T07:18:58;11.50;86.30
7666;DHT22;3875;46.562;4.898;2023-04-01T07:22:09;11.80;85.80
7666;DHT22;3875;46.562;4.898;2023-04-01T07:24:40;12.00;84.80
7666;DHT22;3875;46.562;4.898;2023-04-01T07:27:13;12.10;84.80
7666;DHT22;3875;46.562;4.898;2023-04-01T07:29:39;12.00;85.40
7666;DHT22;3875;46.562;4.898;2023-04-01T07:40:57;11.70;87.30
7666;DHT22;3875;46.562;4.898;2023-04-01T08:05:29;13.40;83.00
7666;DHT22;3875;46.562;4.898;2023-04-01T08:11:02;13.60;81.80
7666;DHT22;3875;46.562;4.898;2023-04-01T08:16:25;13.60;81.10
7666;DHT22;3875;46.562;4.898;2023-04-01T08:18:59;13.50;81.00
7666;DHT22;3875;46.562;4.898;2023-04-01T08:21:32;13.20;81.10
7666;DHT22;3875;46.562;4.898;2023-04-01T08:24:11;13.20;81.10
7666;DHT22;3875;46.562;4.898;2023-04-01T08:26:42;13.20;80.90
7666;DHT22;3875;46.562;4.898;2023-04-01T08:29:15;13.80;80.40
7666;DHT22;3875;46.562;4.898;2023-04-01T08:34:25;13.60;79.00
7666;DHT22;3875;46.562;4.898;2023-04-01T08:37:08;13.70;79.50
7666;DHT22;3875;46.562;4.898;2023-04-01T08:39:48;13.80;80.10
7666;DHT22;3875;46.562;4.898;2023-04-01T09:10:24;13.70;81.20
7666;DHT22;3875;46.562;4.898;2023-04-01T09:34:54;14.50;77.70
7666;DHT22;3875;46.562;4.898;2023-04-01T09:46:09;14.60;78.00
7666;DHT22;3875;46.562;4.898;2023-04-01T09:49:20;14.80;78.10
7666;DHT22;3875;46.562;4.898;2023-04-01T09:54:32;15.60;76.80
7666;DHT22;3875;46.562;4.898;2023-04-01T10:23:57;16.60;70.40
7666;DHT22;3875;46.562;4.898;2023-04-01T14:05:44;15.20;70.70
7666;DHT22;3875;46.562;4.898;2023-04-01T14:08:01;14.70;73.60
7666;DHT22;3875;46.562;4.898;2023-04-01T14:10:43;14.40;76.20
7666;DHT22;3875;46.562;4.898;2023-04-01T14:13:21;14.50;76.10
7666;DHT22;3875;46.562;4.898;2023-04-01T14:59:08;15.90;70.40
7666;DHT22;3875;46.562;4.898;2023-04-01T16:47:09;13.80;73.70
7666;DHT22;3875;46.562;4.898;2023-04-01T17:00:28;13.20;74.20
7666;DHT22;3875;46.562;4.898;2023-04-01T17:06:31;13.20;75.40
7666;DHT22;3875;46.562;4.898;2023-04-01T17:48:05;11.60;78.30
7666;DHT22;3875;46.562;4.898;2023-04-01T18:07:50;11.00;81.40
7666;DHT22;3875;46.562;4.898;2023-04-01T18:17:27;10.70;82.60
7666;DHT22;3875;46.562;4.898;2023-04-01T18:23:30;10.50;83.30
7666;DHT22;3875;46.562;4.898;2023-04-01T18:28:57;10.30;83.90
7666;DHT22;3875;46.562;4.898;2023-04-01T18:31:34;10.30;84.00
7666;DHT22;3875;46.562;4.898;2023-04-01T18:36:59;10.40;84.10
7666;DHT22;3875;46.562;4.898;2023-04-01T18:39:46;10.40;84.30
7666;DHT22;3875;46.562;4.898;2023-04-01T18:42:30;10.40;84.20
7666;DHT22;3875;46.562;4.898;2023-04-01T18:45:27;10.40;84.30
7666;DHT22;3875;46.562;4.898;2023-04-01T18:48:33;10.50;84.30
7666;DHT22;3875;46.562;4.898;2023-04-01T18:51:14;10.50;84.10
7666;DHT22;3875;46.562;4.898;2023-04-01T18:53:49;10.50;84.20
7666;DHT22;3875;46.562;4.898;2023-04-01T18:56:36;10.60;84.20
7666;DHT22;3875;46.562;4.898;2023-04-01T18:59:12;10.70;83.90
7666;DHT22;3875;46.562;4.898;2023-04-01T19:02:04;10.80;83.70
7666;DHT22;3875;46.562;4.898;2023-04-01T19:04:52;10.80;83.40
7666;DHT22;3875;46.562;4.898;2023-04-01T19:09:50;10.90;83.20
7666;DHT22;3875;46.562;4.898;2023-04-01T19:12:34;10.90;83.40
7666;DHT22;3875;46.562;4.898;2023-04-01T19:21:47;11.00;83.00
7666;DHT22;3875;46.562;4.898;2023-04-01T19:27:02;11.00;83.20
7666;DHT22;3875;46.562;4.898;2023-04-01T19:29:58;11.00;83.20
7666;DHT22;3875;46.562;4.898;2023-04-01T19:38:36;11.00;83.60
7666;DHT22;3875;46.562;4.898;2023-04-01T19:41:30;10.90;84.00
7666;DHT22;3875;46.562;4.898;2023-04-01T19:44:17;10.90;84.10
7666;DHT22;3875;46.562;4.898;2023-04-01T19:46:53;10.80;84.30
7666;DHT22;3875;46.562;4.898;2023-04-01T19:49:52;10.80;84.60
7666;DHT22;3875;46.562;4.898;2023-04-01T19:52:23;10.80;84.60
7666;DHT22;3875;46.562;4.898;2023-04-01T19:54:54;10.80;84.90
7666;DHT22;3875;46.562;4.898;2023-04-01T20:08:16;10.60;85.80
7666;DHT22;3875;46.562;4.898;2023-04-01T20:10:49;10.70;85.50
7666;DHT22;3875;46.562;4.898;2023-04-01T20:13:48;10.70;85.60
7666;DHT22;3875;46.562;4.898;2023-04-01T20:16:20;10.70;85.40
7666;DHT22;3875;46.562;4.898;2023-04-01T20:19:00;10.70;85.40
7666;DHT22;3875;46.562;4.898;2023-04-01T20:21:49;10.70;85.50
7666;DHT22;3875;46.562;4.898;2023-04-01T20:24:33;10.70;85.20
7666;DHT22;3875;46.562;4.898;2023-04-01T20:27:09;10.70;85.40
7666;DHT22;3875;46.562;4.898;2023-04-01T20:29:41;10.60;85.60
7666;DHT22;3875;46.562;4.898;2023-04-01T20:35:57;10.40;86.30
7666;DHT22;3875;46.562;4.898;2023-04-01T20:38:41;10.30;87.00
7666;DHT22;3875;46.562;4.898;2023-04-01T20:44:13;10.20;87.30
7666;DHT22;3875;46.562;4.898;2023-04-01T20:57:27;9.90;88.90
7666;DHT22;3875;46.562;4.898;2023-04-01T21:07:52;9.60;90.20
7666;DHT22;3875;46.562;4.898;2023-04-01T21:10:31;9.60;90.50
7666;DHT22;3875;46.562;4.898;2023-04-01T21:13:21;9.50;90.90
7666;DHT22;3875;46.562;4.898;2023-04-01T21:29:55;9.50;91.60
7666;DHT22;3875;46.562;4.898;2023-04-01T21:32:51;9.40;91.70
7666;DHT22;3875;46.562;4.898;2023-04-01T21:38:26;9.30;91.80
7666;DHT22;3875;46.562;4.898;2023-04-01T21:40:55;9.30;91.90
7666;DHT22;3875;46.562;4.898;2023-04-01T21:54:02;9.30;91.50
7666;DHT22;3875;46.562;4.898;2023-04-01T22:01:50;9.20;92.10
7666;DHT22;3875;46.562;4.898;2023-04-01T22:10:03;9.10;92.60
7666;DHT22;3875;46.562;4.898;2023-04-01T22:12:38;9.10;92.70
7666;DHT22;3875;46.562;4.898;2023-04-01T22:18:13;9.10;92.70
7666;DHT22;3875;46.562;4.898;2023-04-01T22:31:19;9.30;92.60
7666;DHT22;3875;46.562;4.898;2023-04-01T22:37:37;9.20;92.80
7666;DHT22;3875;46.562;4.898;2023-04-01T22:40:13;9.30;92.60
7666;DHT22;3875;46.562;4.898;2023-04-01T22:55:40;9.20;92.90
7666;DHT22;3875;46.562;4.898;2023-04-01T22:58:15;9.10;93.10
7666;DHT22;3875;46.562;4.898;2023-04-01T23:00:54;9.10;93.00
7666;DHT22;3875;46.562;4.898;2023-04-01T23:03:27;9.10;93.10
7666;DHT22;3875;46.562;4.898;2023-04-01T23:06:04;9.00;93.20
7666;DHT22;3875;46.562;4.898;2023-04-01T23:11:48;9.00;93.20
7666;DHT22;3875;46.562;4.898;2023-04-01T23:22:07;9.10;92.40
7666;DHT22;3875;46.562;4.898;2023-04-01T23:24:45;9.10;92.40
7666;DHT22;3875;46.562;4.898;2023-04-01T23:27:32;9.10;92.30
7666;DHT22;3875;46.562;4.898;2023-04-01T23:30:01;9.00;92.20
7666;DHT22;3875;46.562;4.898;2023-04-01T23:32:26;9.00;92.30
7666;DHT22;3875;46.562;4.898;2023-04-01T23:34:56;9.00;92.40
7666;DHT22;3875;46.562;4.898;2023-04-01T23:37:23;9.00;92.30
7666;DHT22;3875;46.562;4.898;2023-04-01T23:39:51;9.00;92.50
7666;DHT22;3875;46.562;4.898;2023-04-01T23:42:22;9.00;92.50
7666;DHT22;3875;46.562;4.898;2023-04-01T23:44:51;9.00;92.40
7666;DHT22;3875;46.562;4.898;2023-04-01T23:47:21;9.00;92.30
7666;DHT22;3875;46.562;4.898;2023-04-01T23:49:51;9.00;92.30
7666;DHT22;3875;46.562;4.898;2023-04-01T23:52:25;9.00;92.30
7666;DHT22;3875;46.562;4.898;2023-04-01T23:54:52;9.00;92.20
7666;DHT22;3875;46.562;4.898;2023-04-01T23:57:24;9.00;92.20
